Time;durP1;ratioP1;P1;durP2;ratioP2;P2;SDS_P1;SDS_P2;PMS_P1;PMS_P2;Temp;Humidity;BMP_temperature;BMP_pressure;BME280_temperature;BME280_humidity;BME280_pressure;Samples;Min_cycle;Max_cycle;Signal;HPM_P1;HPM_P2
2023/07/28 00:01:13;;;;;;;11.37;7.40;;;;;;;18.16;100.00;12155.88;4897359;29;20032;-76
2023/07/28 00:03:38;;;;;;;15.93;7.53;;;;;;;18.14;100.00;13196.88;4898117;29;20063;-75
2023/07/28 00:06:04;;;;;;;13.07;7.10;;;;;;;18.16;100.00;14239.03;4912499;29;20032;-75
2023/07/28 00:08:29;;;;;;;14.77;6.47;;;;;;;18.13;100.00;15974.88;4899410;29;20114;-75
2023/07/28 00:10:54;;;;;;;12.43;6.03;;;;;;;18.09;100.00;17363.50;4917147;29;20047;-75
2023/07/28 00:13:20;;;;;;;18.80;6.40;;;;;;;18.16;100.00;18408.31;4917964;29;20249;-74
2023/07/28 00:15:45;;;;;;;21.20;6.43;;;;;;;18.14;100.00;20146.19;4913359;29;20398;-75
2023/07/28 00:18:10;;;;;;;18.27;5.37;;;;;;;18.17;100.00;20843.09;4915119;29;20115;-75
2023/07/28 00:20:37;;;;;;;13.87;4.87;;;;;;;18.17;100.00;21886.66;4913754;29;20396;-75
2023/07/28 00:23:03;;;;;;;13.95;4.85;;;;;;;18.16;100.00;23278.50;4916642;29;20047;-74
2023/07/28 00:25:28;;;;;;;17.97;6.73;;;;;;;18.18;100.00;24671.91;4918449;29;20031;-76
2023/07/28 00:27:53;;;;;;;17.07;6.00;;;;;;;18.24;100.00;26416.13;4913744;29;20032;-75
2023/07/28 00:30:19;;;;;;;15.90;5.50;;;;;;;18.21;100.00;28157.06;4898791;29;20029;-75
2023/07/28 00:32:44;;;;;;;22.17;5.40;;;;;;;18.20;100.00;28853.69;4901277;29;20032;-76
2023/07/28 00:35:10;;;;;;;11.23;5.10;;;;;;;18.19;100.00;29550.19;4914401;29;20108;-75
2023/07/28 00:37:35;;;;;;;21.30;5.13;;;;;;;18.19;100.00;28852.94;4914549;29;20289;-75
2023/07/28 00:40:01;;;;;;;25.50;6.73;;;;;;;18.17;100.00;29200.53;4898006;29;20119;-75
2023/07/28 00:42:32;;;;;;;14.13;5.20;;;;;;;18.16;100.00;29897.28;4915779;29;20066;-75
2023/07/28 00:44:58;;;;;;;15.48;6.05;;;;;;;18.17;100.00;29897.81;4913360;29;20489;-75
2023/07/28 00:47:24;;;;;;;19.67;6.60;;;;;;;18.21;100.00;29551.47;4913721;29;20028;-75
2023/07/28 00:49:49;;;;;;;20.33;7.55;;;;;;;18.18;100.00;30247.00;4910622;29;20473;-75
2023/07/28 00:52:15;;;;;;;20.37;7.60;;;;;;;18.20;100.00;29899.63;4914975;29;20048;-75
2023/07/28 00:54:40;;;;;;;26.50;7.90;;;;;;;18.21;100.00;29551.22;4917054;29;20123;-75
2023/07/28 00:57:06;;;;;;;18.30;6.83;;;;;;;18.20;100.00;29550.94;4898223;29;20047;-75
2023/07/28 00:59:31;;;;;;;21.57;7.70;;;;;;;18.19;100.00;29550.44;4897253;29;20052;-75
2023/07/28 01:01:56;;;;;;;20.63;7.97;;;;;;;18.18;100.00;29201.03;4897998;29;20030;-74
2023/07/28 01:04:23;;;;;;;32.10;8.35;;;;;;;18.22;100.00;29203.31;4916557;29;20083;-74
2023/07/28 01:06:48;;;;;;;17.73;7.03;;;;;;;18.20;100.00;29202.06;4915024;29;20040;-74
2023/07/28 01:09:18;;;;;;;28.23;10.53;;;;;;;18.25;100.00;29204.84;4913728;29;20040;-73
2023/07/28 01:11:57;;;;;;;23.13;8.27;;;;;;;18.25;100.00;29553.50;4888167;29;20088;-73
2023/07/28 01:14:25;;;;;;;28.10;7.55;;;;;;;18.23;100.00;29552.22;4881825;29;20039;-74
2023/07/28 01:19:27;;;;;;;24.70;8.10;;;;;;;18.26;100.00;28508.06;5566640;23;20159;-75
2023/07/28 01:21:57;;;;;;;;;;;;;;;18.23;100.00;28854.94;4910501;29;20036;-74
2023/07/28 01:24:50;;;;;;;22.75;8.77;;;;;;;18.25;100.00;28158.78;4904363;29;19916;-75
2023/07/28 01:27:17;;;;;;;21.65;8.85;;;;;;;18.23;100.00;28158.03;4904587;29;20111;-75
2023/07/28 01:29:42;;;;;;;23.13;8.18;;;;;;;18.25;100.00;29204.59;4908573;29;20519;-76
2023/07/28 01:32:11;;;;;;;35.63;9.50;;;;;;;18.26;100.00;28856.44;4905618;29;20039;-75
2023/07/28 01:34:36;;;;;;;27.85;9.68;;;;;;;18.27;100.00;28508.34;4913345;29;20040;-75
2023/07/28 01:37:02;;;;;;;27.13;8.83;;;;;;;18.26;100.00;28856.44;4912714;29;20666;-75
2023/07/28 01:39:27;;;;;;;22.10;9.67;;;;;;;18.27;100.00;27811.19;4915527;29;20388;-75
2023/07/28 01:41:53;;;;;;;23.63;9.13;;;;;;;18.20;100.00;27808.03;4909009;29;20491;-74
2023/07/28 01:44:18;;;;;;;27.43;8.87;;;;;;;18.24;100.00;27809.75;4914633;29;20032;-75
2023/07/28 01:46:44;;;;;;;24.40;8.97;;;;;;;18.26;100.00;27462.41;4899438;29;20096;-74
2023/07/28 01:49:09;;;;;;;27.00;9.33;;;;;;;18.29;100.00;27463.84;4906024;29;20037;-74
2023/07/28 01:51:34;;;;;;;30.90;9.23;;;;;;;18.23;100.00;27461.00;4899811;29;20080;-74
2023/07/28 01:54:00;;;;;;;25.57;9.83;;;;;;;18.26;100.00;27462.41;4913280;29;20032;-74
2023/07/28 01:56:25;;;;;;;30.97;9.67;;;;;;;18.25;100.00;27461.72;4906210;29;20099;-75
2023/07/28 01:58:50;;;;;;;31.27;10.13;;;;;;;18.29;100.00;27115.34;4893203;29;20031;-74
2023/07/28 02:01:16;;;;;;;29.90;11.07;;;;;;;18.25;100.00;27810.22;4891139;29;20393;-74
2023/07/28 02:03:41;;;;;;;33.03;10.47;;;;;;;18.25;100.00;27461.72;4911399;29;20086;-75
2023/07/28 02:06:07;;;;;;;29.90;9.33;;;;;;;18.23;100.00;27461.00;4911288;29;20186;-74
2023/07/28 02:08:32;;;;;;;30.77;11.03;;;;;;;18.28;100.00;26417.75;4893186;29;20099;-74
2023/07/28 02:10:57;;;;;;;31.77;11.03;;;;;;;18.26;100.00;26765.25;4909009;29;20040;-75
2023/07/28 02:13:23;;;;;;;33.50;10.40;;;;;;;18.23;100.00;26415.44;4900915;29;20032;-75
2023/07/28 02:15:48;;;;;;;28.17;10.10;;;;;;;18.26;100.00;26068.44;4908284;29;20164;-75
2023/07/28 02:18:14;;;;;;;25.23;10.43;;;;;;;18.25;100.00;25719.63;4908517;29;20128;-75
2023/07/28 02:20:39;;;;;;;33.00;10.13;;;;;;;18.25;100.00;25371.50;4925559;29;20389;-75
2023/07/28 02:23:05;;;;;;;29.23;9.77;;;;;;;18.31;100.00;25373.94;4910718;29;20088;-75
2023/07/28 02:25:30;;;;;;;34.47;12.47;;;;;;;18.28;100.00;25372.84;4925245;29;20597;-75
2023/07/28 02:27:55;;;;;;;39.93;12.03;;;;;;;18.23;100.00;25718.72;4932934;29;20480;-74
2023/07/28 02:30:21;;;;;;;36.83;10.60;;;;;;;18.28;100.00;25024.31;4920755;29;20023;-75
2023/07/28 02:32:46;;;;;;;33.97;10.60;;;;;;;18.25;100.00;25371.28;4930892;29;20032;-75
2023/07/28 02:35:11;;;;;;;26.53;10.93;;;;;;;18.27;100.00;25720.50;4933102;29;20032;-75
2023/07/28 02:37:37;;;;;;;38.63;10.90;;;;;;;18.25;100.00;25719.63;4928145;29;20087;-74
2023/07/28 02:40:03;;;;;;;32.17;11.53;;;;;;;18.24;100.00;25719.16;4924081;29;20028;-75
2023/07/28 02:42:29;;;;;;;26.60;9.60;;;;;;;18.25;100.00;25719.63;4923772;29;20617;-75
2023/07/28 02:44:54;;;;;;;24.70;8.93;;;;;;;18.28;100.00;25372.63;4908352;29;20035;-75
2023/07/28 02:47:19;;;;;;;26.93;9.20;;;;;;;18.29;100.00;25721.41;4923822;29;20032;-75
2023/07/28 02:49:45;;;;;;;34.77;10.60;;;;;;;18.28;100.00;26069.34;4912196;29;20123;-75
2023/07/28 02:52:11;;;;;;;28.83;10.63;;;;;;;18.29;100.00;26766.63;4930563;29;20110;-75
2023/07/28 02:54:36;;;;;;;31.83;9.57;;;;;;;18.32;100.00;26419.59;4921587;29;20043;-75
2023/07/28 02:57:02;;;;;;;31.03;8.57;;;;;;;18.26;100.00;27113.94;4928043;29;20035;-75
2023/07/28 02:59:28;;;;;;;36.88;10.05;;;;;;;18.29;100.00;27463.84;4917222;29;20024;-73
2023/07/28 03:01:53;;;;;;;34.77;9.87;;;;;;;18.29;100.00;27463.63;4925621;29;20067;-74
2023/07/28 03:04:22;;;;;;;28.53;10.37;;;;;;;18.33;100.00;27814.09;4911790;29;20040;-74
2023/07/28 03:06:47;;;;;;;26.63;9.75;;;;;;;18.32;100.00;27116.78;4910396;29;20046;-73
2023/07/28 03:09:13;;;;;;;32.53;9.87;;;;;;;18.33;100.00;27117.25;4927197;29;20410;-74
2023/07/28 03:11:39;;;;;;;30.60;10.70;;;;;;;18.29;100.00;26766.88;4933731;29;20032;-75
2023/07/28 03:14:04;;;;;;;36.53;10.93;;;;;;;18.32;100.00;26768.06;4927189;29;20037;-75
2023/07/28 03:16:29;;;;;;;35.50;10.97;;;;;;;18.33;100.00;26420.28;4925464;29;20059;-74
2023/07/28 03:18:55;;;;;;;40.70;11.03;;;;;;;18.31;100.00;26419.13;4923145;29;20059;-75
2023/07/28 03:21:20;;;;;;;36.93;11.63;;;;;;;18.31;100.00;25722.31;4902413;29;20025;-75
2023/07/28 03:23:46;;;;;;;41.53;11.57;;;;;;;18.31;100.00;25373.94;4908099;29;20023;-75
2023/07/28 03:26:11;;;;;;;32.80;11.10;;;;;;;18.29;100.00;25024.97;4905805;29;20083;-75
2023/07/28 03:28:36;;;;;;;36.53;11.20;;;;;;;18.30;100.00;25025.41;4908868;29;20040;-75
2023/07/28 03:31:02;;;;;;;39.73;11.83;;;;;;;18.28;100.00;25372.84;4911391;29;20032;-75
2023/07/28 03:33:27;;;;;;;44.47;11.47;;;;;;;18.32;100.00;24677.75;4904866;29;20144;-75
2023/07/28 03:35:53;;;;;;;36.40;10.97;;;;;;;18.28;100.00;25372.84;4904561;29;20036;-74
2023/07/28 03:38:19;;;;;;;35.37;11.57;;;;;;;18.28;100.00;25024.53;4906798;29;20115;-74
2023/07/28 03:40:44;;;;;;;34.25;11.05;;;;;;;18.26;100.00;24675.16;4905823;29;20024;-74
2023/07/28 03:43:10;;;;;;;36.13;10.43;;;;;;;18.29;100.00;24328.41;4908847;29;20503;-74
2023/07/28 03:45:35;;;;;;;37.83;10.47;;;;;;;18.33;100.00;24678.19;4899414;29;20048;-75
2023/07/28 03:48:01;;;;;;;36.40;12.17;;;;;;;18.32;100.00;24329.50;4908532;29;20111;-74
2023/07/28 03:50:27;;;;;;;37.60;12.00;;;;;;;18.31;100.00;24677.31;4906694;29;20378;-74
2023/07/28 03:52:53;;;;;;;39.85;11.52;;;;;;;18.32;100.00;24329.72;4906508;29;20028;-75
2023/07/28 03:55:19;;;;;;;37.05;11.82;;;;;;;18.31;100.00;24677.53;4895846;29;20061;-75
2023/07/28 03:57:44;;;;;;;36.67;12.20;;;;;;;18.32;100.00;24677.75;4908393;29;20048;-74
2023/07/28 04:00:13;;;;;;;34.53;12.30;;;;;;;18.33;100.00;24329.91;4906705;29;20028;-74
2023/07/28 04:02:39;;;;;;;35.63;11.50;;;;;;;18.31;100.00;24677.53;4908534;29;20084;-75
2023/07/28 04:05:04;;;;;;;50.33;14.37;;;;;;;18.36;100.00;24679.50;4905374;29;20139;-76
2023/07/28 04:07:30;;;;;;;38.83;12.80;;;;;;;18.34;100.00;25026.94;4908937;29;20043;-76
2023/07/28 04:09:55;;;;;;;35.53;12.00;;;;;;;18.33;100.00;25026.50;4910185;29;20083;-75
2023/07/28 04:12:20;;;;;;;42.07;10.93;;;;;;;18.34;100.00;25027.16;4907937;29;20020;-75
2023/07/28 04:14:46;;;;;;;35.07;11.43;;;;;;;18.34;100.00;25026.94;4899590;29;20031;-75
2023/07/28 04:17:11;;;;;;;38.60;11.93;;;;;;;18.31;100.00;24329.06;4909915;29;20377;-74
2023/07/28 04:19:37;;;;;;;38.10;13.10;;;;;;;18.31;100.00;23981.03;4892524;29;20041;-75
2023/07/28 04:22:03;;;;;;;49.53;13.27;;;;;;;18.34;100.00;23982.09;4907315;29;20028;-74
2023/07/28 04:24:28;;;;;;;44.20;11.43;;;;;;;18.37;100.00;23635.13;4909330;29;20040;-74
2023/07/28 04:26:53;;;;;;;37.43;11.53;;;;;;;18.35;100.00;24330.78;4911472;29;20392;-74
2023/07/28 04:29:19;;;;;;;43.07;10.97;;;;;;;18.34;100.00;23982.31;4919228;29;20037;-75
2023/07/28 04:31:44;;;;;;;39.93;11.63;;;;;;;18.41;100.00;24333.34;4906153;29;20469;-74
2023/07/28 04:34:10;;;;;;;39.93;10.40;;;;;;;18.40;100.00;25029.56;4911412;29;20059;-75
2023/07/28 04:36:35;;;;;;;35.53;11.30;;;;;;;18.39;100.00;25029.13;4904736;29;20032;-73
2023/07/28 04:39:01;;;;;;;35.73;10.07;;;;;;;18.38;100.00;25028.91;4918889;29;20036;-75
2023/07/28 04:41:26;;;;;;;31.73;9.87;;;;;;;18.39;100.00;24681.00;4906525;29;20036;-75
2023/07/28 04:43:51;;;;;;;32.47;9.77;;;;;;;18.37;100.00;25376.84;4909976;29;20118;-75
2023/07/28 04:46:17;;;;;;;34.97;10.23;;;;;;;18.41;100.00;24681.66;4912233;29;20043;-74
2023/07/28 04:48:42;;;;;;;37.10;10.47;;;;;;;18.41;100.00;25030.22;4910563;29;20502;-74
2023/07/28 04:51:08;;;;;;;31.07;9.13;;;;;;;18.48;100.00;25381.72;4906894;29;20040;-74
2023/07/28 04:53:33;;;;;;;29.10;9.43;;;;;;;18.45;100.00;26077.06;4909310;29;20515;-75
2023/07/28 04:55:59;;;;;;;41.03;11.50;;;;;;;18.44;100.00;26076.84;4906535;29;20039;-75
2023/07/28 04:58:24;;;;;;;26.93;11.50;;;;;;;18.51;100.00;26079.81;4908943;29;20055;-75
2023/07/28 05:00:49;;;;;;;47.47;13.23;;;;;;;18.50;100.00;26427.88;4911212;29;20042;-74
2023/07/28 05:03:15;;;;;;;50.53;12.77;;;;;;;18.51;100.00;27125.75;4913003;29;20031;-75
2023/07/28 05:05:44;;;;;;;37.40;11.83;;;;;;;18.53;100.00;27126.47;4913565;29;20146;-74
2023/07/28 05:08:09;;;;;;;43.38;12.48;;;;;;;18.50;100.00;27125.28;4912508;29;20033;-74
2023/07/28 05:10:35;;;;;;;38.40;10.67;;;;;;;18.52;100.00;26429.03;4915971;29;20055;-75
2023/07/28 05:13:00;;;;;;;33.60;10.63;;;;;;;18.55;100.00;25733.09;4914395;29;20417;-74
2023/07/28 05:15:25;;;;;;;35.30;11.03;;;;;;;18.56;100.00;25733.78;4913410;29;20040;-74
2023/07/28 05:17:51;;;;;;;40.87;11.50;;;;;;;18.58;100.00;25385.94;4914550;29;20035;-75
2023/07/28 05:20:17;;;;;;;35.27;10.60;;;;;;;18.65;100.00;25737.81;4909322;29;20044;-74
2023/07/28 05:22:43;;;;;;;40.92;13.35;;;;;;;18.66;100.00;26086.63;4910535;29;20102;-75
2023/07/28 05:25:08;;;;;;;37.10;10.93;;;;;;;18.67;100.00;27133.06;4912071;29;20046;-75
2023/07/28 05:27:34;;;;;;;37.50;12.40;;;;;;;18.69;100.00;28180.56;4913768;29;20028;-75
2023/07/28 05:29:59;;;;;;;29.20;11.67;;;;;;;18.73;100.00;29228.91;4920289;29;20031;-75
2023/07/28 05:32:25;;;;;;;31.73;11.67;;;;;;;18.75;100.00;29578.84;4916152;29;20036;-74
2023/07/28 05:34:50;;;;;;;36.33;9.37;;;;;;;18.70;100.00;30972.56;4907673;29;20047;-75
2023/07/28 05:37:15;;;;;;;31.43;10.17;;;;;;;18.71;100.00;31671.03;4915376;29;20032;-74
2023/07/28 05:39:41;;;;;;;33.40;10.77;;;;;;;18.75;100.00;32022.69;4892192;29;20052;-75
2023/07/28 05:42:06;;;;;;;48.93;10.80;;;;;;;18.78;100.00;32722.53;4901666;29;20040;-74
2023/07/28 05:44:34;;;;;;;40.37;11.00;;;;;;;18.82;100.00;33772.78;4913505;29;20041;-75
2023/07/28 05:46:59;;;;;;;30.95;9.65;;;;;;;18.82;100.00;35170.53;4909044;29;20051;-75
2023/07/28 05:49:25;;;;;;;41.63;10.47;;;;;;;18.78;100.00;35517.94;4895259;29;20048;-75
2023/07/28 05:51:50;;;;;;;28.83;10.80;;;;;;;18.85;100.00;35871.47;4909260;29;20042;-75
2023/07/28 05:54:16;;;;;;;30.50;9.90;;;;;;;18.88;100.00;36922.25;4914790;29;20103;-75
2023/07/28 05:56:42;;;;;;;38.20;11.40;;;;;;;18.89;100.00;37972.13;4908917;29;20115;-75
2023/07/28 05:59:07;;;;;;;30.83;9.43;;;;;;;18.91;100.00;39023.00;4907886;29;20056;-75
2023/07/28 06:01:33;;;;;;;29.00;9.10;;;;;;;18.91;100.00;40072.81;4910515;29;20059;-75
2023/07/28 06:03:59;;;;;;;30.03;9.83;;;;;;;18.93;100.00;40424.56;4908503;29;20067;-76
2023/07/28 06:06:26;;;;;;;36.50;9.38;;;;;;;18.89;100.00;42522.44;4909045;29;20039;-76
2023/07/28 06:08:52;;;;;;;36.22;10.38;;;;;;;18.91;100.00;41473.03;4896199;29;20070;-75
2023/07/28 06:11:17;;;;;;;29.13;9.65;;;;;;;18.91;100.00;41473.03;4895440;29;20484;-76
2023/07/28 06:13:43;;;;;;;34.80;9.73;;;;;;;18.89;100.00;42522.09;4910579;29;20046;-75
2023/07/28 06:16:09;;;;;;;28.55;9.18;;;;;;;18.90;100.00;42172.63;4913375;29;20032;-76
2023/07/28 06:18:34;;;;;;;33.17;10.40;;;;;;;18.92;100.00;41824.25;4893020;29;20063;-75
2023/07/28 06:21:00;;;;;;;29.97;11.47;;;;;;;18.93;100.00;41124.34;4908020;29;20155;-75
2023/07/28 06:23:25;;;;;;;38.97;14.40;;;;;;;18.97;100.00;40426.97;4912302;29;20488;-75
2023/07/28 06:25:51;;;;;;;41.80;13.37;;;;;;;18.96;100.00;40776.34;4894527;29;20044;-75
2023/07/28 06:28:16;;;;;;;41.17;12.77;;;;;;;18.97;100.00;40426.97;4907666;29;20036;-75
2023/07/28 06:30:42;;;;;;;37.70;13.60;;;;;;;19.01;100.00;41129.94;4907202;29;20035;-75
2023/07/28 06:33:07;;;;;;;40.50;13.57;;;;;;;19.02;100.00;41831.00;4909030;29;20171;-76
2023/07/28 06:35:33;;;;;;;28.23;14.10;;;;;;;19.01;100.00;43932.47;4895917;29;20067;-75
2023/07/28 06:38:00;;;;;;;40.37;14.03;;;;;;;18.99;100.00;45682.91;4902468;29;20028;-75
2023/07/28 06:40:25;;;;;;;36.28;14.20;;;;;;;18.97;100.00;46733.47;4911731;29;20031;-75
2023/07/28 06:42:51;;;;;;;34.70;13.77;;;;;;;19.04;100.00;46037.34;4911965;29;20409;-75
2023/07/28 06:45:17;;;;;;;38.67;12.30;;;;;;;18.95;100.00;47432.75;4916759;29;20365;-75
2023/07/28 06:47:43;;;;;;;39.77;13.83;;;;;;;19.02;100.00;48139.88;4906147;29;20488;-75
2023/07/28 06:50:10;;;;;;;;;;;;;;;19.10;100.00;49199.00;4910010;29;20472;-75
2023/07/28 06:52:36;;;;;;;22.85;10.45;;;;;;;19.09;100.00;51655.25;4908877;29;19922;-76
2023/07/28 06:55:01;;;;;;;30.77;9.30;;;;;;;19.11;100.00;53764.38;4906520;29;20028;-77
2023/07/28 06:57:27;;;;;;;25.03;10.40;;;;;;;19.17;100.00;55879.00;4900376;29;20465;-76
2023/07/28 06:59:52;;;;;;;22.33;8.90;;;;;;;19.18;100.00;57989.31;4892989;29;20092;-75
2023/07/28 07:02:18;;;;;;;30.23;9.77;;;;;;;19.20;100.00;57991.75;4907589;29;20550;-75
2023/07/28 07:04:43;;;;;;;23.60;9.33;;;;;;;19.20;100.00;61862.91;4909478;29;20033;-75
2023/07/28 07:07:09;;;;;;;26.93;9.23;;;;;;;19.15;100.00;64322.41;4908639;29;20455;-75
2023/07/28 07:09:34;;;;;;;18.83;8.40;;;;;;;19.18;100.00;65383.22;4901629;29;20115;-75
2023/07/28 07:12:00;;;;;;;25.63;8.40;;;;;;;19.28;100.00;65393.66;4909757;29;20028;-74
2023/07/28 07:14:27;;;;;;;30.67;10.00;;;;;;;19.27;100.00;65745.56;4906307;29;20038;-74
2023/07/28 07:16:53;;;;;;;30.38;11.32;;;;;;;19.28;100.00;66098.63;4910229;29;20032;-75
2023/07/28 07:19:19;;;;;;;32.50;11.27;;;;;;;19.25;100.00;67153.50;4912914;29;20130;-75
2023/07/28 07:21:44;;;;;;;33.30;11.43;;;;;;;19.24;100.00;66799.22;4891074;29;20180;-74
2023/07/28 07:24:10;;;;;;;30.87;12.23;;;;;;;19.24;100.00;65741.72;4909164;29;20092;-74
2023/07/28 07:26:35;;;;;;;29.70;13.43;;;;;;;19.27;100.00;65040.69;4902716;29;20032;-74
2023/07/28 07:29:01;;;;;;;29.40;13.60;;;;;;;19.31;100.00;63635.56;4911745;29;20420;-75
2023/07/28 07:31:26;;;;;;;32.83;12.83;;;;;;;19.32;100.00;62579.28;4904637;29;20040;-74
2023/07/28 07:33:52;;;;;;;31.93;12.87;;;;;;;19.33;100.00;62933.13;4911814;29;20631;-75
2023/07/28 07:36:18;;;;;;;24.33;12.53;;;;;;;19.32;100.00;63988.94;4908956;29;20080;-75
2023/07/28 07:38:46;;;;;;;;;;;;;;;19.33;100.00;64341.88;4909171;29;20040;-74
2023/07/28 07:41:12;;;;;;;34.40;14.10;;;;;;;19.32;100.00;66103.06;4893374;29;20294;-74
2023/07/28 07:43:38;;;;;;;34.13;14.57;;;;;;;19.39;100.00;66816.03;4895765;29;20099;-75
2023/07/28 07:46:04;;;;;;;36.97;15.90;;;;;;;19.47;100.00;65767.66;4907091;29;20047;-74
2023/07/28 07:48:30;;;;;;;31.93;14.83;;;;;;;19.47;100.00;66472.34;4907473;29;20391;-74
2023/07/28 07:50:56;;;;;;;38.63;14.90;;;;;;;19.58;100.00;66837.34;4903477;29;20032;-74
2023/07/28 07:53:21;;;;;;;24.90;14.43;;;;;;;19.63;100.00;67901.44;4908481;29;20505;-75
2023/07/28 07:55:47;;;;;;;29.13;14.40;;;;;;;19.58;100.00;72838.59;4908643;29;20047;-75
2023/07/28 07:58:12;;;;;;;27.13;15.50;;;;;;;19.54;100.00;77782.97;4911389;29;20032;-74
2023/07/28 08:00:38;;;;;;;32.77;14.87;;;;;;;19.65;100.00;80628.38;4912393;29;20054;-75
2023/07/28 08:03:04;;;;;;;35.13;14.48;;;;;;;19.72;100.00;84179.16;4907452;29;20084;-75
2023/07/28 08:05:30;;;;;;;32.05;15.07;;;;;;;19.75;100.00;90567.22;4907077;29;20234;-74
2023/07/28 08:07:56;;;;;;;29.35;14.27;;;;;;;19.78;100.00;92702.84;4891831;29;20036;-74
2023/07/28 08:10:23;;;;;;;24.43;13.73;;;;;;;19.97;100.00;94153.53;4910691;29;20068;-74
2023/07/28 08:12:48;;;;;;;28.77;15.38;;;;;;;20.05;100.00;98076.88;4907369;29;20494;-75
2023/07/28 08:15:14;;;;;;;25.23;14.90;;;;;;;19.97;100.00;105184.53;4904601;29;20046;-75
2023/07/28 08:17:41;;;;;;;32.20;14.80;;;;;;;19.89;100.00;111589.00;4896267;29;20278;-75
2023/07/28 08:20:07;;;;;;;;;;;;;;;19.87;100.00;116584.28;4905901;29;20047;-75
2023/07/28 08:22:32;;;;;;;44.90;16.67;;;;;;;19.88;100.00;117301.84;4908131;29;19915;-75
2023/07/28 08:24:59;;;;;;;;;;;;;;;20.03;100.00;118045.16;4897238;29;20116;-74
2023/07/28 08:27:24;;;;;;;34.33;14.95;;;;;;;20.10;100.00;119131.75;4909396;29;19923;-74
2023/07/28 08:29:50;;;;;;;31.27;15.93;;;;;;;20.07;100.00;126284.63;4907707;29;20589;-74
2023/07/28 08:32:15;;;;;;;33.17;16.30;;;;;;;20.01;100.00;132367.22;4902452;29;20054;-74
2023/07/28 08:34:41;;;;;;;28.33;15.73;;;;;;;19.93;100.00;131989.81;4905440;29;20032;-74
2023/07/28 08:37:06;;;;;;;33.03;15.97;;;;;;;19.96;100.00;129487.44;4912646;29;20028;-75
2023/07/28 08:39:32;;;;;;;32.90;17.63;;;;;;;19.98;100.00;130925.97;4897988;29;20028;-74
2023/07/28 08:42:00;;;;;;;29.63;15.68;;;;;;;19.93;100.00;133425.84;4908908;29;20091;-74
2023/07/28 08:44:26;;;;;;;32.83;16.45;;;;;;;19.96;100.00;134509.09;4897204;29;20386;-75
2023/07/28 08:46:52;;;;;;;36.60;17.05;;;;;;;20.05;100.00;134888.25;4908062;29;20035;-74
2023/07/28 08:49:17;;;;;;;33.50;17.10;;;;;;;20.21;100.00;130616.31;4911953;29;20032;-75
2023/07/28 08:51:49;;;;;;;39.53;17.87;;;;;;;20.22;100.00;136002.81;4912516;29;20083;-74
2023/07/28 08:54:16;;;;;;;32.25;16.98;;;;;;;20.28;100.00;141048.59;4908301;29;20116;-75
2023/07/28 08:56:43;;;;;;;31.30;17.77;;;;;;;20.24;100.00;152870.66;4908650;29;20563;-75
2023/07/28 08:59:08;;;;;;;43.17;18.10;;;;;;;20.26;100.00;156534.84;4911002;29;20089;-75
2023/07/28 09:01:41;;;;;;;40.87;17.67;;;;;;;20.28;100.00;156540.09;4912999;29;20480;-75
2023/07/28 09:04:11;;;;;;;35.55;16.73;;;;;;;20.33;100.00;156553.13;4906421;29;20048;-74
2023/07/28 09:06:37;;;;;;;39.17;16.73;;;;;;;20.24;100.00;156530.97;4898759;29;20487;-74
2023/07/28 09:09:06;;;;;;;29.97;16.33;;;;;;;20.26;100.00;156536.16;4892938;29;20065;-75
2023/07/28 09:11:32;;;;;;;36.25;16.52;;;;;;;20.38;100.00;156566.19;4911421;29;20079;-75
2023/07/28 09:14:00;;;;;;;35.45;16.13;;;;;;;20.54;100.00;156609.19;4913521;29;20119;-74
2023/07/28 09:16:26;;;;;;;33.55;16.52;;;;;;;20.55;100.00;156610.53;4910065;29;20039;-75
2023/07/28 09:19:05;;;;;;;32.00;16.90;;;;;;;20.60;100.00;156624.84;4912885;29;20032;-74
2023/07/28 09:21:30;;;;;;;37.20;16.58;;;;;;;20.71;100.00;156653.56;4916412;29;20301;-74
2023/07/28 09:23:56;;;;;;;31.73;16.57;;;;;;;20.80;100.00;156675.78;4931055;29;20063;-74
2023/07/28 09:26:21;;;;;;;44.43;16.30;;;;;;;21.02;100.00;156734.50;4930705;29;20036;-75
2023/07/28 09:28:46;;;;;;;31.57;15.87;;;;;;;20.97;100.00;156720.19;4933038;29;20067;-73
2023/07/28 09:31:14;;;;;;;36.38;14.35;;;;;;;20.88;100.00;156696.63;4927970;29;20059;-74
2023/07/28 09:33:42;;;;;;;40.03;15.35;;;;;;;20.75;100.00;156664.00;4933101;29;20027;-75
2023/07/28 09:36:14;;;;;;;30.15;14.45;;;;;;;20.79;100.00;156673.13;4930107;29;20038;-75
2023/07/28 09:38:41;;;;;;;30.42;13.98;;;;;;;21.08;100.00;156748.91;4925971;29;20035;-75
2023/07/28 09:41:09;;;;;;;34.40;14.85;;;;;;;21.25;100.00;156793.25;4933553;29;20441;-74
2023/07/28 09:43:39;;;;;;;26.50;14.50;;;;;;;21.33;100.00;156815.47;4913601;29;20063;-74
2023/07/28 09:46:07;;;;;;;40.38;15.57;;;;;;;21.46;100.00;156848.09;4910560;29;20066;-74
2023/07/28 09:48:33;;;;;;;28.35;15.80;;;;;;;21.53;100.00;156866.38;4932411;29;20036;-75
2023/07/28 09:51:02;;;;;;;;;;;;;;;21.50;100.00;156859.84;4928284;29;20036;-75
2023/07/28 09:53:28;;;;;;;29.20;15.65;;;;;;;21.47;100.00;156850.69;4928533;29;20430;-74
2023/07/28 09:55:56;;;;;;;31.10;15.18;;;;;;;21.61;100.00;156888.56;4930110;29;20051;-74
2023/07/28 09:58:25;;;;;;;31.05;14.70;;;;;;;21.83;100.00;156944.78;4930223;29;20039;-75
2023/07/28 10:00:51;;;;;;;29.65;14.65;;;;;;;22.25;100.00;157055.78;4929060;29;20547;-74
2023/07/28 10:03:17;;;;;;;28.45;16.15;;;;;;;22.71;100.00;157174.72;4914196;29;20118;-73
2023/07/28 10:05:43;;;;;;;24.75;13.15;;;;;;;22.87;100.00;157217.84;4910660;29;20119;-73
2023/07/28 10:08:12;;;;;;;25.50;12.95;;;;;;;23.13;100.00;157284.50;4928012;29;20023;-74
2023/07/28 10:10:37;;;;;;;28.00;12.75;;;;;;;23.36;100.00;157344.72;4930803;29;20024;-74
2023/07/28 10:13:04;;;;;;;19.37;12.00;;;;;;;23.48;100.00;157376.09;4931074;29;20395;-74
2023/07/28 10:15:32;;;;;;;19.30;10.23;;;;;;;23.31;100.00;157331.66;4926934;29;20158;-74
2023/07/28 10:17:59;;;;;;;18.08;10.63;;;;;;;23.14;98.82;157288.44;4932299;29;20203;-74
2023/07/28 10:20:36;;;;;;;16.60;10.25;;;;;;;23.37;98.64;157347.31;4931558;29;20058;-74
2023/07/28 10:23:22;;;;;;;20.88;10.85;;;;;;;22.88;99.46;157219.19;4930628;29;20400;-74
2023/07/28 10:25:56;;;;;;;19.05;9.85;;;;;;;22.87;99.89;157216.53;4896235;29;20488;-74
2023/07/28 10:28:41;;;;;;;16.90;9.93;;;;;;;22.85;100.00;157212.66;4932304;29;20065;-74
2023/07/28 10:31:10;;;;;;;14.15;10.07;;;;;;;22.88;100.00;157219.19;4925997;29;20084;-74
2023/07/28 10:33:41;;;;;;;17.27;10.35;;;;;;;22.65;98.61;157159.03;4930980;29;20130;-73
2023/07/28 10:36:12;;;;;;;24.20;11.80;;;;;;;22.70;100.00;157173.44;4926788;29;20032;-73
2023/07/28 10:38:39;;;;;;;19.20;11.73;;;;;;;22.82;99.68;157204.78;4909801;29;20451;-74
2023/07/28 10:41:09;;;;;;;20.63;13.35;;;;;;;22.85;99.36;157212.66;4930099;29;20554;-73
2023/07/28 10:43:35;;;;;;;20.85;13.98;;;;;;;22.94;97.57;157236.13;4928168;29;20094;-74
2023/07/28 10:46:00;;;;;;;18.95;13.70;;;;;;;23.10;97.45;157277.97;4921798;29;20036;-75
2023/07/28 10:48:26;;;;;;;22.10;14.70;;;;;;;23.45;95.72;157369.53;4929455;29;20167;-74
2023/07/28 10:50:51;;;;;;;31.43;15.77;;;;;;;23.48;94.87;157376.09;4923841;29;20448;-74
2023/07/28 10:53:17;;;;;;;20.47;15.83;;;;;;;23.57;96.39;157400.91;4929276;29;20032;-74
2023/07/28 10:55:42;;;;;;;22.50;15.70;;;;;;;23.50;94.31;157382.63;4925114;29;20765;-75
2023/07/28 10:58:08;;;;;;;24.20;16.37;;;;;;;23.60;94.34;157408.78;4927917;29;20499;-74
2023/07/28 11:00:33;;;;;;;19.23;14.93;;;;;;;23.74;93.78;157444.09;4932836;29;20023;-74
2023/07/28 11:02:59;;;;;;;19.93;12.77;;;;;;;23.81;92.65;157463.72;4929887;29;20024;-75
2023/07/28 11:05:28;;;;;;;16.65;13.35;;;;;;;23.84;92.11;157471.53;4931256;29;20031;-74
2023/07/28 11:07:56;;;;;;;17.30;12.27;;;;;;;23.49;92.22;157378.69;4900228;29;20149;-74
2023/07/28 11:10:21;;;;;;;16.42;12.15;;;;;;;23.13;92.74;157284.50;4930248;29;20039;-75